Time;durP1;ratioP1;P1;durP2;ratioP2;P2;SDS_P1;SDS_P2;PMS_P1;PMS_P2;Temp;Humidity;BMP_temperature;BMP_pressure;BME280_temperature;BME280_humidity;BME280_pressure;Samples;Min_cycle;Max_cycle;Signal;HPM_P1;HPM_P2
2023/05/05 00:01:01;;;;;;;12.00;7.80;;;;;;;8.91;64.43;99014.80;104599;1263;99143;-67
2023/05/05 00:03:28;;;;;;;13.60;7.60;;;;;;;8.90;64.25;99013.44;104360;1276;111818;-67
2023/05/05 00:05:56;;;;;;;13.10;7.80;;;;;;;8.88;64.65;99006.14;104575;1266;98200;-67
2023/05/05 00:08:23;;;;;;;14.10;7.70;;;;;;;8.86;64.53;99002.17;104705;1264;108611;-68
2023/05/05 00:10:51;;;;;;;11.50;6.60;;;;;;;8.81;64.99;99002.42;104820;1258;97934;-67
2023/05/05 00:13:20;;;;;;;15.20;7.60;;;;;;;8.74;64.80;99004.47;104600;1269;99123;-67
2023/05/05 00:15:49;;;;;;;12.70;6.90;;;;;;;8.73;64.80;99009.84;104504;1281;112294;-66
2023/05/05 00:18:17;;;;;;;14.50;7.60;;;;;;;8.73;64.73;99009.14;104655;1271;99290;-68
2023/05/05 00:20:47;;;;;;;15.90;7.70;;;;;;;8.71;64.78;99003.86;104698;1273;107769;-68
2023/05/05 00:23:15;;;;;;;16.60;9.20;;;;;;;8.67;64.85;99000.73;104756;1259;97919;-72
2023/05/05 00:25:42;;;;;;;16.20;8.40;;;;;;;8.65;64.74;98999.12;104729;1273;97951;-70
2023/05/05 00:28:10;;;;;;;15.00;8.60;;;;;;;8.58;65.28;98997.30;104738;1264;97953;-70
2023/05/05 00:30:38;;;;;;;14.40;8.50;;;;;;;8.52;65.47;98998.98;104845;1264;98021;-71
2023/05/05 00:33:05;;;;;;;18.10;9.20;;;;;;;8.48;65.20;99002.28;104528;1267;108220;-71
2023/05/05 00:35:33;;;;;;;18.60;8.80;;;;;;;8.48;65.39;99001.32;104770;1260;98025;-71
2023/05/05 00:38:00;;;;;;;14.60;8.20;;;;;;;8.44;65.87;98998.24;104654;1260;99301;-69
2023/05/05 00:40:27;;;;;;;16.90;8.70;;;;;;;8.43;65.36;98997.44;104611;1266;99130;-71
2023/05/05 00:42:54;;;;;;;17.50;10.40;;;;;;;8.46;65.57;98992.76;104720;1276;98068;-72
2023/05/05 00:45:21;;;;;;;15.30;8.90;;;;;;;8.50;65.86;98987.91;104491;1274;99234;-70
2023/05/05 00:47:52;;;;;;;13.00;7.90;;;;;;;8.44;66.26;98985.36;104740;1264;97833;-70
2023/05/05 00:50:23;;;;;;;;;;;;;;;8.31;66.97;98983.20;104417;1277;98109;-70
2023/05/05 00:52:56;;;;;;;16.20;8.50;;;;;;;8.16;67.25;98983.43;104525;1274;112048;-67
2023/05/05 00:55:23;;;;;;;15.10;9.10;;;;;;;8.07;67.27;98989.95;104549;1261;98470;-67
2023/05/05 00:57:51;;;;;;;12.90;8.70;;;;;;;7.99;67.65;98988.56;104620;1260;98072;-68
2023/05/05 01:00:17;;;;;;;16.90;9.70;;;;;;;7.88;68.25;98986.16;104622;1262;98005;-68
2023/05/05 01:02:45;;;;;;;15.90;9.40;;;;;;;7.76;69.02;98983.38;104751;1264;99235;-69
2023/05/05 01:05:14;;;;;;;15.40;8.70;;;;;;;7.63;69.44;98980.05;104552;1264;97993;-68
2023/05/05 01:08:03;;;;;;;18.40;10.00;;;;;;;7.54;69.44;98981.27;104681;1264;99524;-68
2023/05/05 01:10:47;;;;;;;16.10;9.50;;;;;;;7.46;69.51;98980.02;104737;1261;108545;-68
2023/05/05 01:13:56;;;;;;;18.10;9.80;;;;;;;7.42;70.13;98974.77;104890;1260;97855;-68
2023/05/05 01:16:29;;;;;;;16.70;8.80;;;;;;;7.39;69.96;98974.54;104859;1263;98315;-68
2023/05/05 01:19:28;;;;;;;15.20;9.10;;;;;;;7.41;70.11;98969.56;104550;1266;111267;-67
2023/05/05 01:21:59;;;;;;;14.00;9.60;;;;;;;7.50;69.90;98966.80;104658;1262;99362;-68
2023/05/05 01:24:54;;;;;;;15.90;8.60;;;;;;;7.56;70.34;98958.08;104752;1272;108830;-68
2023/05/05 01:28:09;;;;;;;13.70;8.60;;;;;;;7.65;70.34;98956.31;104668;1267;98599;-68
2023/05/05 01:31:04;;;;;;;15.00;8.00;;;;;;;7.72;70.23;98955.76;104143;1271;99539;-67
2023/05/05 01:33:40;;;;;;;13.40;8.00;;;;;;;7.77;70.20;98952.42;104153;1282;111322;-68
2023/05/05 01:36:21;;;;;;;13.70;8.10;;;;;;;7.77;70.68;98958.09;103914;1268;98499;-68
2023/05/05 01:38:56;;;;;;;12.60;8.60;;;;;;;7.78;70.69;98962.64;104029;1267;108701;-73
2023/05/05 01:41:29;;;;;;;16.20;9.00;;;;;;;7.78;70.59;98963.81;104008;1269;97952;-72
2023/05/05 01:44:01;;;;;;;15.00;7.80;;;;;;;7.76;71.41;98969.73;104106;1271;98010;-69
2023/05/05 01:46:29;;;;;;;14.00;8.70;;;;;;;7.68;71.22;98971.13;104128;1281;112473;-69
2023/05/05 01:48:57;;;;;;;12.90;8.60;;;;;;;7.66;71.24;98969.39;104049;1283;98968;-71
2023/05/05 01:51:26;;;;;;;14.50;9.10;;;;;;;7.68;70.97;98971.67;104124;1274;107313;-70
2023/05/05 01:53:58;;;;;;;13.80;9.20;;;;;;;7.69;70.98;98973.41;104085;1270;97955;-69
2023/05/05 01:56:26;;;;;;;17.30;9.30;;;;;;;7.66;70.81;98972.56;104086;1281;98085;-70
2023/05/05 01:58:54;;;;;;;13.00;8.60;;;;;;;7.69;71.09;98973.63;104033;1272;112222;-69
2023/05/05 02:01:24;;;;;;;15.70;8.60;;;;;;;7.70;70.97;98977.88;104126;1272;99289;-68
2023/05/05 02:03:55;;;;;;;16.50;9.10;;;;;;;7.73;70.98;98976.52;104158;1273;109016;-69
2023/05/05 02:06:23;;;;;;;;;;;;;;;7.74;71.03;98973.62;104082;1272;99216;-68
2023/05/05 02:08:53;;;;;;;15.20;9.40;;;;;;;7.76;71.08;98967.44;104589;1266;99326;-67
2023/05/05 02:11:20;;;;;;;16.90;9.70;;;;;;;7.77;71.18;98963.01;104785;1264;112423;-68
2023/05/05 02:13:49;;;;;;;19.50;10.70;;;;;;;7.76;70.98;98962.20;104738;1263;99276;-69
2023/05/05 02:16:19;;;;;;;13.80;9.70;;;;;;;7.82;71.09;98960.69;104559;1259;108598;-70
2023/05/05 02:18:46;;;;;;;19.10;9.80;;;;;;;7.84;70.84;98956.52;104695;1263;97907;-69
2023/05/05 02:21:16;;;;;;;15.10;9.90;;;;;;;7.83;71.24;98959.25;104830;1264;98110;-70
2023/05/05 02:23:50;;;;;;;16.00;9.50;;;;;;;7.79;71.60;98960.86;104571;1267;111258;-69
2023/05/05 02:26:20;;;;;;;16.50;10.40;;;;;;;7.69;72.11;98961.25;104714;1259;100321;-70
2023/05/05 02:28:56;;;;;;;19.10;9.80;;;;;;;7.59;72.28;98957.39;104757;1260;108711;-68
2023/05/05 02:31:24;;;;;;;16.70;10.10;;;;;;;7.49;73.07;98955.07;104602;1266;98065;-70
2023/05/05 02:33:55;;;;;;;20.00;10.60;;;;;;;7.44;72.42;98947.39;104909;1260;99152;-69
2023/05/05 02:36:27;;;;;;;19.70;11.30;;;;;;;7.46;72.59;98951.63;104826;1264;111921;-68
2023/05/05 02:39:00;;;;;;;16.90;10.00;;;;;;;7.44;72.68;98946.23;104722;1260;99224;-69
2023/05/05 02:41:30;;;;;;;16.30;8.80;;;;;;;7.42;72.50;98947.52;104785;1262;108721;-69
2023/05/05 02:43:59;;;;;;;18.00;10.90;;;;;;;7.37;72.77;98947.92;104636;1260;97934;-69
2023/05/05 02:46:26;;;;;;;19.80;10.90;;;;;;;7.30;72.73;98948.40;104783;1263;97860;-69
2023/05/05 02:48:54;;;;;;;20.60;11.30;;;;;;;7.24;73.42;98949.55;104585;1274;113443;-67
2023/05/05 02:51:21;;;;;;;21.30;12.00;;;;;;;7.19;73.30;98953.30;104620;1263;99123;-69
2023/05/05 02:53:47;;;;;;;17.20;11.50;;;;;;;7.15;74.02;98954.20;104651;1263;99256;-68
2023/05/05 02:57:02;;;;;;;19.90;11.00;;;;;;;7.11;74.38;98953.08;104448;1266;97949;-68
2023/05/05 02:59:46;;;;;;;17.40;11.40;;;;;;;7.04;74.43;98954.91;104048;1280;98478;-69
2023/05/05 03:02:50;;;;;;;19.10;12.00;;;;;;;7.06;74.25;98961.30;103961;1282;111255;-72
2023/05/05 03:05:22;;;;;;;16.90;11.10;;;;;;;7.06;74.25;98965.98;104084;1272;99064;-70
2023/05/05 03:08:12;;;;;;;16.10;10.40;;;;;;;7.02;74.51;98964.73;104111;1270;108826;-67
2023/05/05 03:10:46;;;;;;;17.90;10.80;;;;;;;7.01;74.21;98968.40;104120;1267;98123;-68
2023/05/05 03:13:17;;;;;;;21.50;12.00;;;;;;;7.03;74.23;98969.27;104071;1282;98394;-71
2023/05/05 03:15:50;;;;;;;18.90;11.40;;;;;;;7.07;74.37;98971.48;104136;1270;112339;-68
2023/05/05 03:18:19;;;;;;;21.30;12.00;;;;;;;7.06;74.18;98970.55;103976;1270;99270;-68
2023/05/05 03:20:47;;;;;;;21.40;13.30;;;;;;;7.05;74.11;98976.55;104014;1278;108547;-68
2023/05/05 03:23:17;;;;;;;20.10;12.00;;;;;;;7.02;74.39;98976.46;104096;1270;98102;-67
2023/05/05 03:25:45;;;;;;;18.40;12.40;;;;;;;6.98;74.42;98973.66;104145;1270;98566;-68
2023/05/05 03:28:14;;;;;;;22.20;13.30;;;;;;;6.98;74.49;98977.20;103990;1282;110857;-71
2023/05/05 03:30:41;;;;;;;20.90;12.10;;;;;;;6.91;74.43;98981.65;104022;1274;99261;-68
2023/05/05 03:33:10;;;;;;;19.80;11.80;;;;;;;6.88;74.58;98982.88;103948;1274;108176;-68
2023/05/05 03:35:40;;;;;;;22.90;13.10;;;;;;;6.89;74.83;98983.02;103950;1270;98039;-68
2023/05/05 03:38:08;;;;;;;23.10;12.60;;;;;;;6.88;74.67;98982.76;104622;1265;99251;-68
2023/05/05 03:40:36;;;;;;;28.20;14.00;;;;;;;6.87;74.94;98978.52;104600;1273;97935;-68
2023/05/05 03:43:10;;;;;;;25.80;12.50;;;;;;;6.92;74.96;98975.17;104295;1270;99087;-67
2023/05/05 03:45:37;;;;;;;37.20;17.30;;;;;;;6.98;74.99;98973.60;104492;1265;97928;-67
2023/05/05 03:48:05;;;;;;;27.20;14.10;;;;;;;7.05;74.97;98972.69;104595;1260;98021;-67
2023/05/05 03:50:32;;;;;;;32.50;15.60;;;;;;;7.09;74.73;98975.27;104649;1261;98012;-67
2023/05/05 03:52:59;;;;;;;26.50;14.30;;;;;;;7.14;75.11;98976.13;104466;1264;97941;-67
2023/05/05 03:55:26;;;;;;;24.80;12.10;;;;;;;7.18;74.95;98973.54;104548;1273;99251;-68
2023/05/05 03:57:53;;;;;;;24.20;11.20;;;;;;;7.23;74.68;98972.67;104637;1263;98009;-67
2023/05/05 04:00:20;;;;;;;26.00;12.50;;;;;;;7.25;74.76;98975.98;104587;1263;97988;-68
2023/05/05 04:02:47;;;;;;;19.10;11.40;;;;;;;7.27;74.75;98974.12;104608;1264;97906;-68
2023/05/05 04:05:14;;;;;;;20.10;10.90;;;;;;;7.20;74.77;98975.42;104643;1264;97906;-67
2023/05/05 04:07:41;;;;;;;18.00;10.50;;;;;;;7.16;74.74;98977.57;104622;1259;99227;-67
2023/05/05 04:10:09;;;;;;;17.70;11.10;;;;;;;7.12;74.83;98982.40;104613;1264;98021;-68
2023/05/05 04:12:36;;;;;;;20.30;11.80;;;;;;;7.17;74.28;98982.86;104535;1260;97925;-67
2023/05/05 04:15:04;;;;;;;28.50;12.70;;;;;;;7.20;74.73;98987.09;104603;1263;97998;-67
2023/05/05 04:17:30;;;;;;;18.30;9.90;;;;;;;7.21;74.80;98987.67;104668;1264;98860;-68
2023/05/05 04:19:57;;;;;;;18.70;11.00;;;;;;;7.22;74.51;98984.62;104373;1260;97968;-67
2023/05/05 04:22:24;;;;;;;19.00;10.50;;;;;;;7.25;74.49;98975.71;104493;1273;97909;-68
2023/05/05 04:24:51;;;;;;;19.50;9.40;;;;;;;7.31;74.37;98973.55;104473;1261;98012;-68
2023/05/05 04:27:18;;;;;;;14.50;9.10;;;;;;;7.38;74.41;98970.39;104560;1282;99143;-69
2023/05/05 04:29:45;;;;;;;17.70;10.20;;;;;;;7.44;74.35;98973.17;104531;1259;97923;-68
2023/05/05 04:32:12;;;;;;;17.90;9.80;;;;;;;7.48;74.41;98973.52;104724;1264;97919;-71
2023/05/05 04:34:39;;;;;;;15.50;9.60;;;;;;;7.52;74.37;98977.52;104773;1264;97999;-69
2023/05/05 04:37:05;;;;;;;16.60;9.70;;;;;;;7.53;74.48;98976.91;104779;1261;97941;-68
2023/05/05 04:39:33;;;;;;;18.70;10.50;;;;;;;7.49;74.91;98978.04;104818;1274;97919;-69
2023/05/05 04:42:01;;;;;;;15.40;9.50;;;;;;;7.45;75.07;98981.67;104749;1274;97960;-69
2023/05/05 04:44:28;;;;;;;17.50;10.90;;;;;;;7.44;75.20;98987.13;104761;1262;97934;-70
2023/05/05 04:46:55;;;;;;;17.40;10.40;;;;;;;7.50;74.51;98995.31;104614;1263;99226;-68
2023/05/05 04:49:22;;;;;;;19.10;10.90;;;;;;;7.56;74.21;99000.67;104616;1264;99488;-68
2023/05/05 04:51:49;;;;;;;17.60;10.40;;;;;;;7.60;73.89;99007.73;104546;1262;98041;-68
2023/05/05 04:54:16;;;;;;;20.30;10.10;;;;;;;7.68;74.24;99010.79;104887;1262;98525;-70
2023/05/05 04:56:42;;;;;;;15.80;9.40;;;;;;;7.73;74.62;99012.65;104755;1263;97897;-70
2023/05/05 04:59:09;;;;;;;15.10;10.00;;;;;;;7.77;74.16;99015.77;104543;1262;98826;-68
2023/05/05 05:01:36;;;;;;;20.90;10.90;;;;;;;7.83;73.67;99015.56;104800;1274;98408;-68
2023/05/05 05:04:04;;;;;;;19.90;10.70;;;;;;;7.93;74.01;99017.56;104635;1259;97973;-69
2023/05/05 05:06:31;;;;;;;19.30;11.60;;;;;;;8.06;73.89;99018.95;104649;1259;98014;-69
2023/05/05 05:08:59;;;;;;;18.80;10.80;;;;;;;8.17;73.66;99023.98;104705;1260;99116;-73
2023/05/05 05:11:26;;;;;;;17.20;10.20;;;;;;;8.20;73.28;99024.48;104538;1262;97995;-68
2023/05/05 05:13:53;;;;;;;16.20;9.70;;;;;;;8.30;73.24;99027.08;104780;1262;99241;-69
2023/05/05 05:16:20;;;;;;;15.20;10.40;;;;;;;8.49;73.02;99020.05;104836;1276;97908;-68
2023/05/05 05:18:47;;;;;;;18.60;10.10;;;;;;;8.74;72.80;99021.41;104798;1262;97990;-68
2023/05/05 05:21:15;;;;;;;14.40;9.30;;;;;;;8.88;71.81;99026.65;104641;1262;99228;-69
2023/05/05 05:23:42;;;;;;;17.10;10.60;;;;;;;8.97;72.21;99025.11;104749;1273;99266;-69
2023/05/05 05:26:09;;;;;;;16.60;10.70;;;;;;;9.15;71.76;99022.55;104805;1262;98000;-69
2023/05/05 05:28:36;;;;;;;15.90;10.10;;;;;;;9.33;71.17;99027.34;104789;1262;97985;-68
2023/05/05 05:31:03;;;;;;;15.20;8.60;;;;;;;9.47;70.34;99031.30;104631;1259;98009;-67
2023/05/05 05:33:30;;;;;;;15.00;9.60;;;;;;;9.45;70.26;99036.02;104713;1282;112215;-67
2023/05/05 05:35:58;;;;;;;15.40;9.30;;;;;;;9.47;70.25;99036.98;104764;1263;98011;-68
2023/05/05 05:38:25;;;;;;;15.10;9.30;;;;;;;9.53;70.14;99036.41;104740;1261;99250;-68
2023/05/05 05:40:53;;;;;;;13.90;9.40;;;;;;;9.60;69.80;99032.59;104682;1273;99216;-68
2023/05/05 05:43:20;;;;;;;18.50;10.50;;;;;;;9.61;69.96;99039.33;104565;1262;97929;-70
2023/05/05 05:45:47;;;;;;;18.20;10.90;;;;;;;9.67;69.83;99042.26;104569;1263;98008;-71
2023/05/05 05:48:14;;;;;;;18.20;11.00;;;;;;;9.81;69.58;99040.77;104842;1262;97937;-70
2023/05/05 05:50:41;;;;;;;17.60;11.20;;;;;;;9.98;69.51;99040.45;104806;1264;97931;-68
2023/05/05 05:53:08;;;;;;;17.90;12.10;;;;;;;10.21;69.04;99035.66;104831;1262;97922;-69
2023/05/05 05:55:35;;;;;;;20.00;11.20;;;;;;;10.49;68.82;99037.20;104813;1274;97918;-69
2023/05/05 05:58:02;;;;;;;16.90;11.30;;;;;;;10.67;67.91;99040.90;104791;1262;98015;-69
2023/05/05 06:00:29;;;;;;;17.00;11.10;;;;;;;10.82;67.66;99037.71;104792;1262;97928;-69
2023/05/05 06:02:56;;;;;;;15.30;9.70;;;;;;;11.02;67.29;99037.61;104776;1274;98404;-69
2023/05/05 06:05:24;;;;;;;16.50;10.00;;;;;;;11.18;66.73;99036.17;104667;1259;99113;-69
2023/05/05 06:07:51;;;;;;;13.60;8.90;;;;;;;11.38;65.98;99036.76;104847;1276;99273;-69
2023/05/05 06:10:18;;;;;;;16.10;10.00;;;;;;;11.49;65.66;99037.40;104685;1264;98029;-69
2023/05/05 06:12:54;;;;;;;12.00;8.40;;;;;;;11.72;65.69;99038.83;104483;1271;108568;-69
2023/05/05 06:15:21;;;;;;;16.10;10.60;;;;;;;11.90;65.52;99036.69;104445;1262;98011;-70
2023/05/05 06:17:48;;;;;;;15.90;9.10;;;;;;;12.12;64.68;99041.95;104524;1259;97928;-70
2023/05/05 06:20:16;;;;;;;15.50;8.80;;;;;;;12.19;63.06;99042.03;104513;1265;98611;-69
2023/05/05 06:22:43;;;;;;;11.30;7.90;;;;;;;12.17;63.38;99043.50;104844;1260;97922;-69
2023/05/05 06:25:10;;;;;;;14.50;9.60;;;;;;;12.26;63.26;99042.41;104799;1259;99855;-67
2023/05/05 06:27:38;;;;;;;12.00;8.10;;;;;;;12.43;63.09;99037.89;104828;1262;98832;-67
2023/05/05 06:30:06;;;;;;;14.30;8.60;;;;;;;12.62;62.41;99040.27;104575;1262;98024;-68
2023/05/05 06:32:33;;;;;;;13.30;8.10;;;;;;;12.77;62.32;99043.00;104550;1265;111269;-69
2023/05/05 06:35:01;;;;;;;14.20;9.40;;;;;;;12.96;62.01;99040.46;104535;1260;98013;-72
2023/05/05 06:37:28;;;;;;;17.20;10.10;;;;;;;13.18;62.19;99036.29;104443;1276;97999;-68
2023/05/05 06:39:55;;;;;;;11.60;8.00;;;;;;;13.47;61.70;99036.80;104443;1262;99246;-70
2023/05/05 06:42:22;;;;;;;13.50;8.30;;;;;;;13.65;59.88;99036.64;104653;1262;98009;-70
2023/05/05 06:44:50;;;;;;;11.10;7.50;;;;;;;13.60;59.12;99036.52;104815;1262;98891;-69
2023/05/05 06:47:17;;;;;;;12.20;8.00;;;;;;;13.60;59.75;99035.04;104810;1259;98129;-70
2023/05/05 06:49:44;;;;;;;10.70;7.80;;;;;;;13.88;59.88;99032.38;104720;1277;98701;-67
2023/05/05 06:52:11;;;;;;;10.30;7.40;;;;;;;14.16;59.12;99027.98;104687;1262;99107;-69
2023/05/05 06:54:38;;;;;;;13.80;9.00;;;;;;;14.39;57.22;99029.61;104668;1262;97930;-67
2023/05/05 06:57:06;;;;;;;13.60;9.20;;;;;;;14.45;57.59;99028.38;104527;1262;97925;-67
2023/05/05 06:59:33;;;;;;;13.20;9.70;;;;;;;14.39;57.78;99029.39;104542;1262;97925;-67
2023/05/05 07:02:00;;;;;;;11.00;8.10;;;;;;;14.31;57.30;99030.97;104600;1263;97937;-67
2023/05/05 07:04:27;;;;;;;10.70;7.80;;;;;;;14.16;56.38;99031.17;104600;1262;98622;-66
2023/05/05 07:06:54;;;;;;;8.70;6.20;;;;;;;14.07;56.55;99033.67;104596;1266;111474;-67
2023/05/05 07:09:21;;;;;;;10.60;7.10;;;;;;;14.04;56.56;99037.17;104537;1263;97984;-71
2023/05/05 07:11:49;;;;;;;9.60;6.70;;;;;;;14.20;56.09;99032.63;104502;1277;97976;-66
2023/05/05 07:14:16;;;;;;;10.80;8.50;;;;;;;14.45;55.53;99031.70;104798;1259;97997;-69
2023/05/05 07:16:44;;;;;;;11.20;7.50;;;;;;;14.43;55.85;99030.10;104599;1263;97941;-70
2023/05/05 07:19:11;;;;;;;10.20;7.10;;;;;;;14.60;56.15;99028.73;104836;1258;97986;-68
2023/05/05 07:21:38;;;;;;;9.50;6.40;;;;;;;14.92;55.85;99027.83;104678;1262;97964;-70
2023/05/05 07:24:06;;;;;;;12.20;7.00;;;;;;;15.14;53.33;99025.67;104552;1262;97998;-69
2023/05/05 07:26:34;;;;;;;9.30;6.10;;;;;;;14.96;53.58;99030.04;104551;1259;97931;-68
2023/05/05 07:29:03;;;;;;;10.70;6.70;;;;;;;14.94;53.02;99024.17;104899;1262;99614;-67
2023/05/05 07:31:30;;;;;;;10.00;7.20;;;;;;;15.11;53.60;99032.80;104530;1265;111183;-67
2023/05/05 07:33:58;;;;;;;10.60;7.20;;;;;;;15.30;53.43;99028.79;104769;1260;99501;-67
2023/05/05 07:36:26;;;;;;;6.90;5.80;;;;;;;15.63;52.86;99029.83;104774;1260;97939;-68
2023/05/05 07:38:54;;;;;;;7.90;5.60;;;;;;;15.95;51.17;99027.65;104551;1266;97984;-67
2023/05/05 07:41:21;;;;;;;7.10;5.50;;;;;;;16.23;50.12;99026.02;104652;1276;98190;-67
2023/05/05 07:43:49;;;;;;;11.30;7.40;;;;;;;16.42;50.33;99023.39;104610;1262;112383;-67
2023/05/05 07:46:17;;;;;;;7.80;5.90;;;;;;;16.75;49.69;99020.18;104534;1260;99283;-68
2023/05/05 07:48:45;;;;;;;8.50;5.70;;;;;;;16.92;49.37;99019.05;104348;1267;107324;-68
2023/05/05 07:51:12;;;;;;;9.40;6.20;;;;;;;17.06;48.15;99016.55;104774;1263;97962;-67
2023/05/05 07:53:40;;;;;;;10.80;6.50;;;;;;;16.95;48.05;99015.52;104831;1260;97900;-67
2023/05/05 07:56:07;;;;;;;9.50;5.90;;;;;;;17.07;48.72;99016.66;104823;1262;111659;-68
2023/05/05 07:58:35;;;;;;;8.60;6.90;;;;;;;17.40;48.41;99019.23;104788;1264;99276;-67
2023/05/05 08:01:05;;;;;;;8.10;5.20;;;;;;;17.74;46.71;99019.79;104714;1262;97938;-68
2023/05/05 08:03:32;;;;;;;7.70;5.60;;;;;;;17.93;46.18;99018.23;104710;1264;99183;-68
2023/05/05 08:06:07;;;;;;;8.40;5.30;;;;;;;18.06;45.66;99019.03;104372;1267;97885;-69
2023/05/05 08:08:35;;;;;;;7.10;4.80;;;;;;;18.33;45.01;99019.19;104571;1263;112055;-68
2023/05/05 08:11:02;;;;;;;6.70;4.60;;;;;;;18.58;44.49;99018.14;104597;1264;99140;-68
2023/05/05 08:13:30;;;;;;;6.40;4.80;;;;;;;18.92;42.98;99012.17;104594;1276;98031;-67
2023/05/05 08:15:57;;;;;;;7.10;5.00;;;;;;;19.01;42.42;99011.91;104626;1263;97938;-68
2023/05/05 08:18:25;;;;;;;6.80;4.50;;;;;;;19.13;42.59;99010.05;104674;1259;97926;-67
2023/05/05 08:20:53;;;;;;;7.20;5.00;;;;;;;19.23;42.32;99007.09;104392;1267;111662;-67
2023/05/05 08:23:20;;;;;;;5.00;4.40;;;;;;;19.48;41.89;99004.59;104629;1264;98913;-67
2023/05/05 08:25:48;;;;;;;9.40;4.40;;;;;;;19.80;40.80;99002.11;104440;1260;97963;-68
2023/05/05 08:28:15;;;;;;;6.00;4.40;;;;;;;20.02;39.42;99005.78;104574;1264;97945;-69
2023/05/05 08:30:43;;;;;;;6.50;4.20;;;;;;;19.86;39.07;99003.42;104440;1264;97935;-72
2023/05/05 08:33:11;;;;;;;6.30;4.10;;;;;;;19.67;38.85;98999.80;104619;1260;111045;-68
2023/05/05 08:35:38;;;;;;;6.90;5.40;;;;;;;19.50;39.22;99007.00;104648;1264;98161;-68
2023/05/05 08:38:05;;;;;;;8.10;5.40;;;;;;;19.61;39.97;99005.71;104573;1263;97935;-68
2023/05/05 08:40:33;;;;;;;6.70;4.40;;;;;;;19.88;39.05;99005.83;104505;1265;99232;-68
2023/05/05 08:43:01;;;;;;;7.60;4.80;;;;;;;20.17;38.82;99002.32;104288;1266;98015;-67
2023/05/05 08:45:29;;;;;;;6.90;4.50;;;;;;;20.27;38.52;99000.27;104589;1264;112320;-68
2023/05/05 08:47:59;;;;;;;5.50;4.00;;;;;;;20.48;38.00;98998.30;104599;1264;99116;-68
2023/05/05 08:50:28;;;;;;;6.50;4.20;;;;;;;20.63;37.74;98997.59;104574;1266;109139;-69
2023/05/05 08:53:04;;;;;;;6.40;4.10;;;;;;;20.70;37.25;98996.33;104515;1260;98024;-67
2023/05/05 08:55:34;;;;;;;5.80;4.40;;;;;;;20.82;38.44;98992.23;104512;1263;98024;-68
2023/05/05 08:58:05;;;;;;;6.40;4.50;;;;;;;21.12;37.43;98996.01;104621;1264;112500;-68
2023/05/05 09:00:33;;;;;;;6.10;4.00;;;;;;;21.44;36.74;98986.70;104613;1261;98033;-67
2023/05/05 09:03:01;;;;;;;5.40;3.90;;;;;;;21.59;35.74;98983.68;104538;1260;107584;-67
2023/05/05 09:05:28;;;;;;;4.80;3.40;;;;;;;21.69;34.95;98982.27;104812;1275;97931;-69
2023/05/05 09:07:57;;;;;;;5.50;3.80;;;;;;;21.75;34.48;98979.33;104505;1260;99125;-69
2023/05/05 09:10:26;;;;;;;5.20;3.70;;;;;;;21.81;35.33;98973.27;104607;1265;112252;-67
2023/05/05 09:12:53;;;;;;;5.60;4.10;;;;;;;21.98;34.70;98973.59;104614;1264;99192;-69
2023/05/05 09:15:20;;;;;;;5.20;3.40;;;;;;;22.04;35.46;98977.70;104547;1265;97947;-69
2023/05/05 09:17:47;;;;;;;6.00;3.70;;;;;;;22.31;34.56;98982.58;104632;1259;97923;-68
2023/05/05 09:20:15;;;;;;;5.40;3.90;;;;;;;22.64;34.36;98982.68;104682;1262;98440;-68
2023/05/05 09:22:44;;;;;;;4.90;3.90;;;;;;;22.85;33.99;98986.27;104595;1265;99365;-68
2023/05/05 09:25:14;;;;;;;5.20;4.00;;;;;;;22.71;34.46;98988.89;104592;1262;99228;-66
2023/05/05 09:27:47;;;;;;;5.10;3.80;;;;;;;22.90;34.28;98984.85;104559;1262;108177;-69
2023/05/05 09:30:16;;;;;;;5.10;3.80;;;;;;;23.33;33.99;98975.49;104464;1262;98050;-68
2023/05/05 09:32:46;;;;;;;6.20;3.90;;;;;;;23.81;33.82;98982.77;104611;1273;98837;-69
2023/05/05 09:35:15;;;;;;;5.80;4.40;;;;;;;24.13;32.92;98979.08;104601;1262;112102;-67
2023/05/05 09:37:42;;;;;;;4.20;3.30;;;;;;;23.93;31.32;98985.04;104715;1262;99167;-66
2023/05/05 09:40:13;;;;;;;5.10;3.70;;;;;;;23.68;32.05;98982.73;104774;1260;108785;-66
2023/05/05 09:42:41;;;;;;;7.20;3.90;;;;;;;23.78;31.05;98981.48;104702;1264;99298;-66
2023/05/05 09:45:17;;;;;;;5.40;3.80;;;;;;;23.73;31.12;98982.05;104701;1273;99340;-66
2023/05/05 09:47:46;;;;;;;4.70;3.70;;;;;;;23.71;31.34;98980.20;104513;1262;111951;-67
2023/05/05 09:50:17;;;;;;;5.00;3.10;;;;;;;23.50;32.09;98977.41;104734;1262;99143;-69
2023/05/05 09:52:59;;;;;;;4.00;3.00;;;;;;;23.68;30.31;98984.42;104555;1262;108573;-74
2023/05/05 09:55:27;;;;;;;5.30;3.70;;;;;;;23.53;30.60;98980.22;104497;1267;98073;-66
2023/05/05 09:57:55;;;;;;;3.70;3.00;;;;;;;23.65;29.99;98982.89;104746;1262;99123;-66
2023/05/05 10:00:38;;;;;;;5.90;3.80;;;;;;;23.74;29.88;98983.64;104468;1265;111361;-66
2023/05/05 10:03:16;;;;;;;3.50;2.90;;;;;;;23.71;29.28;98983.71;104608;1259;98093;-66
2023/05/05 10:05:47;;;;;;;6.00;3.10;;;;;;;23.78;29.19;98980.13;104839;1262;99246;-66
2023/05/05 10:08:16;;;;;;;8.50;2.90;;;;;;;23.79;28.60;98983.73;104536;1264;97929;-65
2023/05/05 10:10:57;;;;;;;3.60;2.50;;;;;;;23.91;27.40;98977.92;104615;1267;98036;-67
2023/05/05 10:13:25;;;;;;;4.70;2.70;;;;;;;24.14;27.10;98974.13;104441;1268;111248;-66
2023/05/05 10:15:56;;;;;;;3.80;2.50;;;;;;;24.29;27.92;98973.42;104315;1268;98301;-65
2023/05/05 10:18:26;;;;;;;4.10;3.10;;;;;;;24.58;27.64;98970.30;104613;1265;108508;-65
2023/05/05 10:20:58;;;;;;;5.20;2.90;;;;;;;24.31;27.70;98971.51;104585;1265;97986;-66
2023/05/05 10:23:48;;;;;;;3.10;2.80;;;;;;;23.90;28.21;98966.88;104839;1262;99109;-65
2023/05/05 10:26:18;;;;;;;3.50;2.70;;;;;;;23.91;28.63;98972.64;104570;1276;112120;-66
2023/05/05 10:28:55;;;;;;;3.10;2.80;;;;;;;24.54;29.09;98968.84;104307;1266;98726;-66
2023/05/05 10:31:29;;;;;;;2.80;2.50;;;;;;;25.26;28.02;98970.94;104411;1263;107610;-67
2023/05/05 10:34:15;;;;;;;3.30;2.70;;;;;;;25.55;26.04;98964.56;104501;1269;99238;-66
2023/05/05 10:36:50;;;;;;;4.20;2.40;;;;;;;25.70;24.03;98960.01;104888;1260;98041;-65
2023/05/05 10:39:26;;;;;;;3.10;2.30;;;;;;;25.52;24.25;98957.92;104794;1260;110808;-65
2023/05/05 10:42:06;;;;;;;2.70;2.30;;;;;;;25.55;23.86;98953.83;104810;1263;99349;-65
2023/05/05 10:44:43;;;;;;;3.90;2.50;;;;;;;25.77;25.20;98954.92;104672;1262;108629;-65
2023/05/05 10:47:22;;;;;;;3.50;2.00;;;;;;;26.15;25.14;98953.29;104604;1262;98012;-65
2023/05/05 10:50:29;;;;;;;4.00;2.30;;;;;;;26.55;24.54;98949.67;104787;1260;99120;-65
2023/05/05 10:53:28;;;;;;;2.50;2.30;;;;;;;26.76;24.54;98946.09;104822;1262;112209;-65
2023/05/05 10:56:20;;;;;;;3.00;2.50;;;;;;;26.68;24.04;98948.02;104520;1264;98572;-65
2023/05/05 10:58:47;;;;;;;5.10;2.80;;;;;;;26.59;24.88;98948.83;104556;1260;108717;-64
2023/05/05 11:01:33;;;;;;;3.20;2.40;;;;;;;26.81;25.17;98948.68;104517;1263;98098;-65
2023/05/05 11:04:21;;;;;;;4.00;2.70;;;;;;;26.85;24.92;98948.16;104625;1275;98111;-67
2023/05/05 11:07:06;;;;;;;3.10;2.60;;;;;;;26.40;24.60;98950.77;104315;1267;112028;-65
2023/05/05 11:10:03;;;;;;;3.60;2.50;;;;;;;26.28;25.30;98948.13;104546;1261;99249;-65
2023/05/05 11:12:32;;;;;;;5.30;2.80;;;;;;;26.49;24.75;98942.83;104658;1274;108608;-64
2023/05/05 11:15:30;;;;;;;6.20;3.50;;;;;;;26.54;25.16;98938.92;104608;1265;97923;-69
2023/05/05 11:18:02;;;;;;;2.90;2.30;;;;;;;27.01;25.06;98940.36;104571;1266;98377;-66
2023/05/05 11:20:38;;;;;;;3.00;2.30;;;;;;;27.45;24.18;98937.50;104333;1268;111752;-67
2023/05/05 11:23:05;;;;;;;3.10;2.30;;;;;;;27.52;24.49;98932.10;104903;1259;99344;-65
2023/05/05 11:25:33;;;;;;;3.40;2.40;;;;;;;27.94;24.47;98928.45;104778;1262;97932;-67
2023/05/05 11:28:08;;;;;;;4.40;2.10;;;;;;;28.13;23.76;98930.73;104598;1262;97928;-66
2023/05/05 11:30:55;;;;;;;3.40;2.20;;;;;;;27.55;23.62;98925.38;104359;1268;99557;-65
2023/05/05 11:33:27;;;;;;;4.10;2.20;;;;;;;27.71;24.00;98923.57;104445;1265;113066;-66
2023/05/05 11:36:05;;;;;;;;;;;;;;;27.66;23.10;98922.03;104498;1277;99671;-65
2023/05/05 11:39:03;;;;;;;18.70;7.90;;;;;;;27.95;22.82;98922.80;104723;1273;108684;-66